createdAt,value
2023-03-17T00:00:19.689Z,98291.69
2023-03-17T00:02:49.180Z,98294.09
2023-03-17T00:05:20.811Z,98300.94
2023-03-17T00:07:47.740Z,98296.03
2023-03-17T00:10:25.736Z,98295.19
2023-03-17T00:12:55.085Z,98294.41
2023-03-17T00:15:23.171Z,98302.66
2023-03-17T00:17:50.245Z,98298.69
2023-03-17T00:20:27.396Z,98303.25
2023-03-17T00:23:04.282Z,98296.69
2023-03-17T00:25:34.242Z,98303.50
2023-03-17T00:28:03.223Z,98298.31
2023-03-17T00:30:30.143Z,98294.25
2023-03-17T00:32:58.181Z,98300.53
2023-03-17T00:35:27.829Z,98290.13
2023-03-17T00:37:57.683Z,98290.25
2023-03-17T00:40:29.492Z,98274.50
2023-03-17T00:42:58.104Z,98278.13
2023-03-17T00:45:27.062Z,98274.78
2023-03-17T00:47:57.590Z,98276.88
2023-03-17T00:50:27.877Z,98280.38
2023-03-17T00:52:57.709Z,98271.09
2023-03-17T00:55:26.690Z,98269.34
2023-03-17T00:57:54.193Z,98270.47
2023-03-17T01:00:20.935Z,98265.22
2023-03-17T01:02:53.062Z,98268.94
2023-03-17T01:05:21.737Z,98257.72
2023-03-17T01:07:53.011Z,98242.06
2023-03-17T01:10:24.267Z,98243.19
2023-03-17T01:12:51.512Z,98234.91
2023-03-17T01:15:20.118Z,98245.56
2023-03-17T01:17:47.257Z,98242.19
2023-03-17T01:20:22.637Z,98237.16
2023-03-17T01:22:50.609Z,98236.28
2023-03-17T01:25:18.389Z,98236.75
2023-03-17T01:27:46.786Z,98233.53
2023-03-17T01:30:19.523Z,98229.63
2023-03-17T01:32:46.781Z,98234.13
2023-03-17T01:35:13.871Z,98227.16
2023-03-17T01:37:40.582Z,98226.03
2023-03-17T01:40:09.613Z,98220.88
2023-03-17T01:42:36.381Z,98210.47
2023-03-17T01:45:25.255Z,98221.03
2023-03-17T01:47:52.300Z,98217.16
2023-03-17T01:50:21.405Z,98218.16
2023-03-17T01:52:48.093Z,98213.94
2023-03-17T01:55:17.760Z,98221.25
2023-03-17T01:57:53.452Z,98214.59
2023-03-17T02:00:24.104Z,98211.88
2023-03-17T02:02:56.549Z,98210.91
2023-03-17T02:05:26.483Z,98212.00
2023-03-17T02:07:54.409Z,98213.97
2023-03-17T02:10:28.619Z,98212.16
2023-03-17T02:12:59.355Z,98206.03
2023-03-17T02:15:40.891Z,98202.88
2023-03-17T02:18:08.204Z,98197.16
2023-03-17T02:20:36.552Z,98193.78
2023-03-17T02:23:04.602Z,98182.41
2023-03-17T02:25:34.503Z,98179.97
2023-03-17T02:28:10.269Z,98177.19
2023-03-17T02:30:37.595Z,98177.63
2023-03-17T02:33:04.416Z,98180.16
2023-03-17T02:35:31.488Z,98185.84
2023-03-17T02:37:58.358Z,98179.78
2023-03-17T02:40:25.070Z,98181.22
2023-03-17T02:42:51.974Z,98189.88
2023-03-17T02:45:18.662Z,98189.00
2023-03-17T02:47:46.271Z,98190.94
2023-03-17T02:50:19.922Z,98195.47
2023-03-17T02:52:46.568Z,98199.34
2023-03-17T02:55:14.215Z,98193.44
2023-03-17T02:57:41.141Z,98197.16
2023-03-17T03:00:10.521Z,98192.97
2023-03-17T03:02:41.154Z,98186.50
2023-03-17T03:05:08.847Z,98189.25
2023-03-17T03:07:35.612Z,98183.22
2023-03-17T03:10:02.843Z,98190.44
2023-03-17T03:12:29.413Z,98191.47
2023-03-17T03:14:56.062Z,98187.31
2023-03-17T03:17:23.027Z,98192.81
2023-03-17T03:19:49.712Z,98184.28
2023-03-17T03:22:16.351Z,98186.06
2023-03-17T03:24:42.959Z,98193.81
2023-03-17T03:27:09.604Z,98184.06
2023-03-17T03:29:36.431Z,98186.13
2023-03-17T03:32:03.093Z,98189.97
2023-03-17T03:34:29.920Z,98190.75
2023-03-17T03:36:57.047Z,98189.22
2023-03-17T03:39:23.700Z,98199.53
2023-03-17T03:41:50.384Z,98193.50
2023-03-17T03:44:16.967Z,98186.66
2023-03-17T03:46:43.612Z,98196.78
2023-03-17T03:49:10.624Z,98191.06
2023-03-17T03:51:37.221Z,98196.53
2023-03-17T03:54:03.866Z,98192.16
2023-03-17T03:56:30.607Z,98187.78
2023-03-17T03:58:57.239Z,98186.97
2023-03-17T04:01:24.583Z,98191.38
2023-03-17T04:03:51.319Z,98182.03
2023-03-17T04:06:17.888Z,98186.34
2023-03-17T04:08:44.917Z,98183.03
2023-03-17T04:11:11.706Z,98179.50
2023-03-17T04:13:38.550Z,98175.31
2023-03-17T04:16:05.457Z,98176.56
2023-03-17T04:18:32.110Z,98177.66
2023-03-17T04:20:58.696Z,98176.16
2023-03-17T04:23:25.381Z,98182.25
2023-03-17T04:25:53.374Z,98178.66
2023-03-17T04:28:20.690Z,98176.94
2023-03-17T04:30:47.338Z,98173.75
2023-03-17T04:33:14.026Z,98173.91
2023-03-17T04:35:40.841Z,98171.38
2023-03-17T04:38:07.740Z,98170.53
2023-03-17T04:40:34.349Z,98180.53
2023-03-17T04:43:03.394Z,98180.47
2023-03-17T04:45:30.327Z,98177.09
2023-03-17T04:47:56.979Z,98180.78
2023-03-17T04:50:23.615Z,98170.47
2023-03-17T04:52:50.231Z,98178.66
2023-03-17T04:55:17.079Z,98178.13
2023-03-17T04:57:44.204Z,98182.44
2023-03-17T05:00:12.769Z,98191.09
2023-03-17T05:02:39.502Z,98182.63
2023-03-17T05:05:06.183Z,98189.53
2023-03-17T05:07:34.143Z,98183.34
2023-03-17T05:10:02.099Z,98187.41
2023-03-17T05:12:28.881Z,98189.06
2023-03-17T05:14:55.484Z,98192.56
2023-03-17T05:17:22.158Z,98188.34
2023-03-17T05:19:48.808Z,98192.34
2023-03-17T05:22:15.591Z,98200.19
2023-03-17T05:24:42.514Z,98194.53
2023-03-17T05:27:09.143Z,98194.38
2023-03-17T05:29:35.809Z,98197.50
2023-03-17T05:32:02.472Z,98205.28
2023-03-17T05:34:29.050Z,98210.69
2023-03-17T05:36:55.647Z,98209.22
2023-03-17T05:39:22.417Z,98217.78
2023-03-17T05:41:50.367Z,98217.75
2023-03-17T05:44:17.023Z,98210.00
2023-03-17T05:46:43.644Z,98210.75
2023-03-17T05:49:10.259Z,98218.78
2023-03-17T05:51:37.149Z,98224.06
2023-03-17T05:54:04.076Z,98226.53
2023-03-17T05:56:33.725Z,98230.25
2023-03-17T05:59:01.697Z,98231.13
2023-03-17T06:01:29.097Z,98225.56
2023-03-17T06:03:55.854Z,98231.41
2023-03-17T06:06:24.561Z,98236.78
2023-03-17T06:08:51.689Z,98227.81
2023-03-17T06:11:20.631Z,98225.66
2023-03-17T06:13:47.962Z,98227.78
2023-03-17T06:16:15.642Z,98221.44
2023-03-17T06:18:42.341Z,98219.47
2023-03-17T06:21:09.111Z,98219.75
2023-03-17T06:23:36.570Z,98222.56
2023-03-17T06:26:03.410Z,98227.19
2023-03-17T06:28:30.040Z,98223.78
2023-03-17T06:30:56.780Z,98213.03
2023-03-17T06:33:23.773Z,98204.34
2023-03-17T06:35:51.693Z,98213.59
2023-03-17T06:38:18.338Z,98207.50
2023-03-17T06:40:44.937Z,98203.69
2023-03-17T06:43:11.508Z,98203.38
2023-03-17T06:45:38.146Z,98203.19
2023-03-17T06:48:04.931Z,98196.50
2023-03-17T06:50:31.739Z,98200.69
2023-03-17T06:52:58.697Z,98202.13
2023-03-17T06:55:25.313Z,98198.88
2023-03-17T06:57:52.492Z,98193.00
2023-03-17T07:00:20.925Z,98201.16
2023-03-17T07:02:47.724Z,98196.50
2023-03-17T07:05:14.739Z,98190.09
2023-03-17T07:07:41.585Z,98194.22
2023-03-17T07:10:10.354Z,98185.19
2023-03-17T07:12:37.615Z,98186.66
2023-03-17T07:15:04.645Z,98185.06
2023-03-17T07:17:31.268Z,98188.81
2023-03-17T07:19:57.849Z,98199.09
2023-03-17T07:22:24.460Z,98200.75
2023-03-17T07:24:51.920Z,98209.22
2023-03-17T07:27:20.794Z,98206.16
2023-03-17T07:29:48.966Z,98203.69
2023-03-17T07:32:15.596Z,98205.38
2023-03-17T07:34:42.468Z,98205.59
2023-03-17T07:37:10.352Z,98203.31
2023-03-17T07:39:37.015Z,98207.25
2023-03-17T07:42:03.762Z,98208.03
2023-03-17T07:44:31.240Z,98205.56
2023-03-17T07:46:58.168Z,98210.16
2023-03-17T07:49:40.132Z,98211.63
2023-03-17T07:52:08.977Z,98204.19
2023-03-17T07:54:36.264Z,98207.00
2023-03-17T07:57:04.177Z,98205.66
2023-03-17T07:59:31.608Z,98203.00
2023-03-17T08:02:00.122Z,98207.06
2023-03-17T08:04:27.850Z,98204.78
2023-03-17T08:06:54.623Z,98205.34
2023-03-17T08:09:24.762Z,98208.59
2023-03-17T08:11:51.693Z,98200.88
2023-03-17T08:14:18.588Z,98204.44
2023-03-17T08:16:45.356Z,98199.00
2023-03-17T08:19:12.276Z,98189.50
2023-03-17T08:21:38.919Z,98193.25
2023-03-17T08:24:05.965Z,98181.81
2023-03-17T08:26:32.954Z,98185.97
2023-03-17T08:28:59.764Z,98193.44
2023-03-17T08:31:26.403Z,98186.63
2023-03-17T08:33:54.664Z,98175.53
2023-03-17T08:36:21.661Z,98166.94
2023-03-17T08:38:48.803Z,98173.06
2023-03-17T08:41:18.297Z,98168.81
2023-03-17T08:43:46.358Z,98165.78
2023-03-17T08:46:21.334Z,98165.25
2023-03-17T08:48:49.867Z,98154.78
2023-03-17T08:51:19.397Z,98160.25
2023-03-17T08:53:47.237Z,98154.59
2023-03-17T08:56:14.543Z,98162.22
2023-03-17T08:58:42.586Z,98163.91
2023-03-17T09:01:10.817Z,98165.88
2023-03-17T09:03:39.357Z,98154.75
2023-03-17T09:06:07.658Z,98149.28
2023-03-17T09:08:37.578Z,98153.66
2023-03-17T09:11:05.425Z,98150.72
2023-03-17T09:13:33.752Z,98146.06
2023-03-17T09:16:01.424Z,98148.63
2023-03-17T09:18:28.182Z,98150.78
2023-03-17T09:20:54.816Z,98157.19
2023-03-17T09:23:23.266Z,98160.28
2023-03-17T09:25:50.063Z,98152.41
2023-03-17T09:28:17.442Z,98147.44
2023-03-17T09:30:44.375Z,98148.09
2023-03-17T09:33:12.928Z,98143.91
2023-03-17T09:35:40.462Z,98149.03
2023-03-17T09:38:08.542Z,98149.22
2023-03-17T09:40:48.185Z,98143.16
2023-03-17T09:43:47.505Z,98140.47
2023-03-17T09:46:39.069Z,98133.88
2023-03-17T09:49:25.163Z,98136.00
2023-03-17T09:51:51.919Z,98131.75
2023-03-17T09:54:31.292Z,98127.00
2023-03-17T09:57:06.601Z,98117.63
2023-03-17T09:59:40.717Z,98115.06
2023-03-17T10:02:27.681Z,98123.28
2023-03-17T10:04:54.685Z,98124.31
2023-03-17T10:07:28.636Z,98116.56
2023-03-17T10:10:05.133Z,98113.72
2023-03-17T10:13:07.130Z,98102.28
2023-03-17T10:15:36.055Z,98109.13
2023-03-17T10:18:10.110Z,98089.22
2023-03-17T10:20:46.795Z,98089.84
2023-03-17T10:23:18.349Z,98095.84
2023-03-17T10:25:45.009Z,98093.75
2023-03-17T10:28:14.346Z,98092.63
2023-03-17T10:30:41.103Z,98100.47
2023-03-17T10:33:07.787Z,98083.06
2023-03-17T10:35:36.643Z,98093.16
2023-03-17T10:38:23.977Z,98096.28
2023-03-17T10:41:00.095Z,98087.09
2023-03-17T10:43:47.130Z,98087.94
2023-03-17T10:46:18.677Z,98083.06
2023-03-17T10:48:52.894Z,98082.09
2023-03-17T10:51:30.888Z,98081.47
2023-03-17T10:54:02.218Z,98075.09
2023-03-17T10:56:36.132Z,98072.03
2023-03-17T10:59:20.456Z,98075.69
2023-03-17T11:01:52.993Z,98077.13
2023-03-17T11:04:49.373Z,98060.84
2023-03-17T11:07:19.109Z,98056.06
2023-03-17T11:09:50.780Z,98059.81
2023-03-17T11:12:27.940Z,98066.81
2023-03-17T11:14:59.702Z,98059.34
2023-03-17T11:17:45.469Z,98058.03
2023-03-17T11:20:36.242Z,98047.72
2023-03-17T11:23:11.747Z,98045.63
2023-03-17T11:25:42.444Z,98031.50
2023-03-17T11:28:16.827Z,98037.78
2023-03-17T11:30:57.135Z,98032.31
2023-03-17T11:33:50.371Z,98026.50
2023-03-17T11:36:33.533Z,98019.94
2023-03-17T11:39:14.366Z,98027.66
2023-03-17T11:42:01.689Z,98023.06
2023-03-17T11:44:34.530Z,98017.06
2023-03-17T11:47:39.829Z,98000.06
2023-03-17T11:50:28.459Z,98003.16
2023-03-17T11:53:05.796Z,97987.88
2023-03-17T11:55:50.378Z,97984.72
2023-03-17T11:58:42.611Z,97989.31
2023-03-17T12:01:21.579Z,97979.06
2023-03-17T12:03:57.660Z,97970.56
2023-03-17T12:06:32.493Z,97966.66
2023-03-17T12:09:10.959Z,97963.75
2023-03-17T12:11:41.528Z,97968.22
2023-03-17T12:14:38.295Z,97957.97
2023-03-17T12:17:25.771Z,97957.13
2023-03-17T12:20:18.556Z,97945.78
2023-03-17T12:22:47.074Z,97935.56
2023-03-17T12:25:36.697Z,97930.34
2023-03-17T12:28:20.169Z,97926.63
2023-03-17T12:31:00.394Z,97929.34
2023-03-17T12:33:30.782Z,97936.00
2023-03-17T12:35:59.223Z,97925.59
2023-03-17T12:38:31.600Z,97916.53
2023-03-17T12:41:04.231Z,97912.31
2023-03-17T12:44:01.940Z,97903.69
2023-03-17T12:46:55.901Z,97906.03
2023-03-17T12:49:31.719Z,97902.53
2023-03-17T12:52:30.231Z,97891.63
2023-03-17T12:55:02.333Z,97894.63
2023-03-17T12:57:38.272Z,97891.13
2023-03-17T13:00:30.401Z,97883.97
2023-03-17T13:03:12.075Z,97884.91
2023-03-17T13:05:39.193Z,97885.06
2023-03-17T13:08:10.835Z,97880.81
2023-03-17T13:10:48.031Z,97864.91
2023-03-17T13:13:52.276Z,97872.53
2023-03-17T13:16:29.906Z,97871.59
2023-03-17T13:19:22.770Z,97865.16
2023-03-17T13:22:01.101Z,97862.19
2023-03-17T13:24:52.535Z,97850.84
2023-03-17T13:27:31.294Z,97847.66
2023-03-17T13:29:59.555Z,97852.53
2023-03-17T13:32:26.514Z,97852.06
2023-03-17T13:35:02.202Z,97848.56
2023-03-17T13:37:35.725Z,97850.47
2023-03-17T13:40:12.123Z,97835.78
2023-03-17T13:42:49.716Z,97834.91
2023-03-17T13:45:41.363Z,97830.56
2023-03-17T13:48:34.320Z,97830.78
2023-03-17T13:51:18.695Z,97830.13
2023-03-17T13:53:51.040Z,97826.28
2023-03-17T13:56:25.075Z,97821.97
2023-03-17T13:59:06.690Z,97818.59
2023-03-17T14:01:41.422Z,97814.63
2023-03-17T14:04:35.730Z,97812.88
2023-03-17T14:07:10.145Z,97808.34
2023-03-17T14:09:42.158Z,97803.94
2023-03-17T14:12:21.847Z,97807.66
2023-03-17T14:14:55.958Z,97798.00
2023-03-17T14:17:31.354Z,97802.22
2023-03-17T14:20:20.905Z,97794.31
2023-03-17T14:22:53.747Z,97792.09
2023-03-17T14:25:24.068Z,97797.47
2023-03-17T14:27:56.976Z,97790.94
2023-03-17T14:30:27.646Z,97778.53
2023-03-17T14:33:12.601Z,97776.84
2023-03-17T14:35:43.240Z,97770.28
2023-03-17T14:38:23.346Z,97764.19
2023-03-17T14:40:51.563Z,97769.75
2023-03-17T14:43:18.261Z,97764.00
2023-03-17T14:45:51.281Z,97766.56
2023-03-17T14:48:25.590Z,97761.53
2023-03-17T14:50:59.817Z,97760.09
2023-03-17T14:53:26.786Z,97757.53
2023-03-17T14:55:53.626Z,97757.59
2023-03-17T14:58:48.980Z,97745.06
2023-03-17T15:01:43.229Z,97750.91
2023-03-17T15:04:16.764Z,97750.53
2023-03-17T15:06:51.775Z,97745.28
2023-03-17T15:09:24.514Z,97744.41
2023-03-17T15:11:53.971Z,97750.94
2023-03-17T15:14:31.881Z,97744.63
2023-03-17T15:16:58.631Z,97742.41
2023-03-17T15:19:29.895Z,97735.72
2023-03-17T15:21:59.844Z,97737.28
2023-03-17T15:24:36.397Z,97741.72
2023-03-17T15:27:06.444Z,97738.81
2023-03-17T15:29:33.320Z,97735.28
2023-03-17T15:32:14.202Z,97732.38
2023-03-17T15:34:41.578Z,97730.53
2023-03-17T15:37:16.937Z,97721.44
2023-03-17T15:39:43.944Z,97733.22
2023-03-17T15:42:11.041Z,97730.41
2023-03-17T15:44:37.783Z,97728.56
2023-03-17T15:47:05.222Z,97723.28
2023-03-17T15:49:31.841Z,97727.34
2023-03-17T15:51:58.438Z,97728.66
2023-03-17T15:54:25.209Z,97718.03
2023-03-17T15:56:52.053Z,97716.03
2023-03-17T15:59:21.426Z,97709.72
2023-03-17T16:01:48.166Z,97720.03
2023-03-17T16:04:15.032Z,97714.13
2023-03-17T16:06:41.828Z,97712.41
2023-03-17T16:09:15.558Z,97712.69
2023-03-17T16:11:42.273Z,97711.16
2023-03-17T16:14:09.956Z,97713.06
2023-03-17T16:16:39.444Z,97724.41
2023-03-17T16:19:09.107Z,97713.91
2023-03-17T16:21:37.087Z,97716.97
2023-03-17T16:24:03.852Z,97723.50
2023-03-17T16:26:30.500Z,97718.75
2023-03-17T16:28:57.526Z,97719.38
2023-03-17T16:31:28.256Z,97716.94
2023-03-17T16:33:55.523Z,97724.13
2023-03-17T16:36:24.017Z,97723.47
2023-03-17T16:38:51.699Z,97716.88
2023-03-17T16:41:20.494Z,97713.59
2023-03-17T16:43:51.352Z,97726.06
2023-03-17T16:46:20.221Z,97720.25
2023-03-17T16:48:48.365Z,97719.28
2023-03-17T16:51:16.081Z,97720.81
2023-03-17T16:53:42.884Z,97725.50
2023-03-17T16:56:14.696Z,97728.00
2023-03-17T16:58:41.773Z,97721.63
2023-03-17T17:01:23.784Z,97724.88
2023-03-17T17:03:50.772Z,97729.41
2023-03-17T17:06:19.104Z,97729.50
2023-03-17T17:08:46.699Z,97728.63
2023-03-17T17:11:15.973Z,97732.47
2023-03-17T17:13:44.537Z,97724.41
2023-03-17T17:16:30.852Z,97734.88
2023-03-17T17:18:58.406Z,97734.66
2023-03-17T17:21:26.410Z,97736.09
2023-03-17T17:23:53.419Z,97746.13
2023-03-17T17:26:20.827Z,97737.25
2023-03-17T17:28:47.576Z,97736.88
2023-03-17T17:31:14.269Z,97732.13
2023-03-17T17:33:40.982Z,97738.41
2023-03-17T17:36:13.424Z,97740.69
2023-03-17T17:38:40.104Z,97736.53
2023-03-17T17:41:08.902Z,97738.25
2023-03-17T17:43:36.031Z,97736.84
2023-03-17T17:46:02.744Z,97748.09
2023-03-17T17:48:29.343Z,97746.31
2023-03-17T17:50:57.182Z,97744.25
2023-03-17T17:53:24.047Z,97739.50
2023-03-17T17:55:51.602Z,97745.56
2023-03-17T17:58:22.854Z,97743.69
2023-03-17T18:00:49.950Z,97746.09
2023-03-17T18:03:17.317Z,97741.09
2023-03-17T18:05:44.333Z,97742.06
2023-03-17T18:08:13.865Z,97747.75
2023-03-17T18:10:40.928Z,97744.66
2023-03-17T18:13:07.520Z,97743.81
2023-03-17T18:15:34.278Z,97744.75
2023-03-17T18:18:00.882Z,97746.84
2023-03-17T18:20:27.833Z,97744.09
2023-03-17T18:22:54.481Z,97751.34
2023-03-17T18:25:21.273Z,97750.97
2023-03-17T18:27:48.313Z,97747.00
2023-03-17T18:30:26.913Z,97743.56
2023-03-17T18:32:57.225Z,97744.69
2023-03-17T18:35:27.140Z,97738.59
2023-03-17T18:37:57.055Z,97748.66
2023-03-17T18:40:25.665Z,97745.41
2023-03-17T18:42:52.524Z,97740.09
2023-03-17T18:45:19.265Z,97740.94
2023-03-17T18:47:45.938Z,97738.91
2023-03-17T18:50:14.918Z,97740.19
2023-03-17T18:52:43.848Z,97740.63
2023-03-17T18:55:12.353Z,97737.56
2023-03-17T18:57:39.193Z,97748.66
2023-03-17T19:00:09.754Z,97745.03
2023-03-17T19:02:37.665Z,97734.81
2023-03-17T19:05:05.426Z,97740.69
2023-03-17T19:07:32.099Z,97734.72
2023-03-17T19:09:59.377Z,97734.00
2023-03-17T19:12:26.642Z,97736.63
2023-03-17T19:14:53.321Z,97738.72
2023-03-17T19:17:19.932Z,97737.25
2023-03-17T19:19:46.756Z,97731.34
2023-03-17T19:22:14.123Z,97733.31
2023-03-17T19:24:41.178Z,97733.84
2023-03-17T19:27:08.276Z,97732.63
2023-03-17T19:29:34.981Z,97737.84
2023-03-17T19:32:02.342Z,97734.50
2023-03-17T19:34:29.065Z,97742.63
2023-03-17T19:36:55.965Z,97739.28
2023-03-17T19:39:23.139Z,97735.25
2023-03-17T19:41:53.436Z,97731.56
2023-03-17T19:44:20.443Z,97735.13
2023-03-17T19:46:47.860Z,97729.28
2023-03-17T19:49:14.979Z,97743.03
2023-03-17T19:51:44.726Z,97737.63
2023-03-17T19:54:11.812Z,97739.28
2023-03-17T19:56:38.931Z,97736.88
2023-03-17T19:59:07.382Z,97735.41
2023-03-17T20:01:34.174Z,97732.59
2023-03-17T20:04:01.222Z,97739.50
2023-03-17T20:06:28.081Z,97726.78
2023-03-17T20:08:54.691Z,97731.03
2023-03-17T20:11:21.664Z,97738.94
2023-03-17T20:13:48.381Z,97727.91
2023-03-17T20:16:16.495Z,97722.91
2023-03-17T20:18:43.129Z,97726.66
2023-03-17T20:21:13.582Z,97722.78
2023-03-17T20:23:40.243Z,97722.13
2023-03-17T20:26:07.498Z,97720.25
2023-03-17T20:28:34.613Z,97716.31
2023-03-17T20:31:04.344Z,97718.78
2023-03-17T20:33:33.514Z,97725.63
2023-03-17T20:36:01.851Z,97718.66
2023-03-17T20:38:29.301Z,97712.81
2023-03-17T20:41:07.423Z,97712.72
2023-03-17T20:43:37.262Z,97717.50
2023-03-17T20:46:09.179Z,97712.47
2023-03-17T20:48:37.278Z,97712.47
2023-03-17T20:51:06.432Z,97711.66
2023-03-17T20:53:34.393Z,97712.47
2023-03-17T20:56:01.053Z,97700.63
2023-03-17T20:58:27.704Z,97701.00
2023-03-17T21:00:55.160Z,97699.34
2023-03-17T21:03:21.919Z,97692.88
2023-03-17T21:05:48.746Z,97688.59
2023-03-17T21:08:15.540Z,97699.19
2023-03-17T21:10:42.206Z,97694.00
2023-03-17T21:13:08.918Z,97687.84
2023-03-17T21:15:36.223Z,97680.31
2023-03-17T21:18:03.097Z,97691.97
2023-03-17T21:20:29.989Z,97695.31
2023-03-17T21:22:56.990Z,97685.28
2023-03-17T21:25:25.587Z,97684.84
2023-03-17T21:27:52.773Z,97682.53
2023-03-17T21:30:19.369Z,97671.59
2023-03-17T21:32:46.141Z,97681.66
2023-03-17T21:35:12.784Z,97672.91
2023-03-17T21:37:39.365Z,97683.22
2023-03-17T21:40:07.078Z,97672.09
2023-03-17T21:42:34.266Z,97681.66
2023-03-17T21:45:01.031Z,97671.09
2023-03-17T21:47:29.937Z,97673.03
2023-03-17T21:49:57.978Z,97668.66
2023-03-17T21:52:25.416Z,97672.66
2023-03-17T21:54:52.137Z,97674.91
2023-03-17T21:57:18.857Z,97665.94
2023-03-17T21:59:46.444Z,97668.25
2023-03-17T22:02:13.687Z,97661.66
2023-03-17T22:04:41.694Z,97658.31
2023-03-17T22:07:09.892Z,97659.25
2023-03-17T22:09:36.589Z,97661.13
2023-03-17T22:12:04.352Z,97665.66
2023-03-17T22:14:31.292Z,97652.41
2023-03-17T22:16:57.919Z,97656.56
2023-03-17T22:19:24.576Z,97648.41
2023-03-17T22:21:51.923Z,97661.03
2023-03-17T22:24:18.754Z,97657.97
2023-03-17T22:26:45.366Z,97653.59
2023-03-17T22:29:12.499Z,97646.75
2023-03-17T22:31:40.090Z,97645.63
2023-03-17T22:34:07.340Z,97650.00
2023-03-17T22:36:33.973Z,97639.78
2023-03-17T22:39:00.649Z,97645.25
2023-03-17T22:41:29.228Z,97636.81
2023-03-17T22:43:56.261Z,97635.69
2023-03-17T22:46:23.394Z,97634.78
2023-03-17T22:48:50.839Z,97630.69
2023-03-17T22:51:21.135Z,97629.84
2023-03-17T22:53:48.857Z,97633.63
2023-03-17T22:56:16.980Z,97627.25
2023-03-17T22:58:44.502Z,97629.00
2023-03-17T23:01:13.674Z,97629.94
2023-03-17T23:03:41.917Z,97621.75
2023-03-17T23:06:09.360Z,97630.81
2023-03-17T23:08:38.599Z,97624.44
2023-03-17T23:11:10.541Z,97626.78
2023-03-17T23:13:37.777Z,97629.38
2023-03-17T23:16:04.693Z,97636.41
2023-03-17T23:18:31.495Z,97625.06
2023-03-17T23:20:59.329Z,97626.91
2023-03-17T23:23:25.984Z,97628.34
2023-03-17T23:25:52.617Z,97632.03
2023-03-17T23:28:19.998Z,97621.16
2023-03-17T23:30:47.316Z,97631.25
2023-03-17T23:33:17.354Z,97622.41
2023-03-17T23:35:44.665Z,97617.69
2023-03-17T23:38:11.365Z,97624.03
2023-03-17T23:40:38.008Z,97627.72
2023-03-17T23:43:05.528Z,97623.16
2023-03-17T23:45:33.667Z,97622.41
2023-03-17T23:48:01.033Z,97629.13
2023-03-17T23:50:27.876Z,97624.38
2023-03-17T23:52:54.488Z,97622.69
2023-03-17T23:55:21.218Z,97619.91
2023-03-17T23:57:47.899Z,97624.72
